Time;durP1;ratioP1;P1;durP2;ratioP2;P2;SDS_P1;SDS_P2;PMS_P1;PMS_P2;Temp;Humidity;BMP_temperature;BMP_pressure;BME280_temperature;BME280_humidity;BME280_pressure;Samples;Min_cycle;Max_cycle;Signal;HPM_P1;HPM_P2
2023/09/14 00:00:52;;;;;;;9.25;3.13;;;13.10;80.50;;;;;;4953823;29;20040;-79
2023/09/14 00:03:18;;;;;;;7.55;2.90;;;13.10;80.50;;;;;;4953994;28;20154;-78
2023/09/14 00:05:47;;;;;;;6.70;3.03;;;13.00;80.50;;;;;;4953999;29;20132;-76
2023/09/14 00:08:13;;;;;;;5.88;3.33;;;13.00;80.50;;;;;;4953886;29;20054;-77
2023/09/14 00:10:40;;;;;;;5.13;2.50;;;13.00;80.50;;;;;;4937729;29;20488;-79
2023/09/14 00:13:07;;;;;;;3.35;2.20;;;13.00;80.70;;;;;;4953061;29;20049;-78
2023/09/14 00:15:33;;;;;;;10.85;3.72;;;13.00;80.80;;;;;;4953751;29;20102;-78
2023/09/14 00:17:59;;;;;;;6.32;3.03;;;13.00;81.00;;;;;;4953358;28;20043;-80
2023/09/14 00:20:30;;;;;;;5.55;2.95;;;13.00;80.80;;;;;;4952768;28;20078;-78
2023/09/14 00:22:57;;;;;;;10.50;3.67;;;13.00;80.90;;;;;;4937609;29;20055;-79
2023/09/14 00:25:23;;;;;;;7.03;3.50;;;13.00;80.80;;;;;;4956135;28;20126;-81
2023/09/14 00:27:51;;;;;;;7.72;3.22;;;12.90;80.90;;;;;;4955596;29;20075;-78
2023/09/14 00:30:18;;;;;;;8.93;3.08;;;12.90;81.20;;;;;;4956773;29;20039;-79
2023/09/14 00:32:44;;;;;;;4.65;2.75;;;12.90;81.30;;;;;;4956733;29;20039;-78
2023/09/14 00:35:10;;;;;;;7.50;3.50;;;12.90;81.40;;;;;;4956730;29;20098;-79
2023/09/14 00:37:36;;;;;;;5.15;3.10;;;12.80;81.80;;;;;;4941233;29;20399;-78
2023/09/14 00:40:06;;;;;;;5.90;2.70;;;12.80;82.00;;;;;;4956817;29;20035;-78
2023/09/14 00:42:41;;;;;;;8.93;4.05;;;12.80;82.10;;;;;;4941130;29;20050;-79
2023/09/14 00:45:17;;;;;;;4.53;3.25;;;12.70;82.40;;;;;;4955777;28;20043;-79
2023/09/14 00:47:54;;;;;;;5.63;2.92;;;12.70;82.60;;;;;;4956700;29;20083;-78
2023/09/14 00:50:21;;;;;;;7.22;3.40;;;12.70;82.50;;;;;;4956498;28;20058;-79
2023/09/14 00:53:13;;;;;;;5.50;3.33;;;12.60;82.70;;;;;;4940366;29;20043;-78
2023/09/14 00:55:40;;;;;;;7.78;3.63;;;12.60;82.90;;;;;;4956434;29;20046;-77
2023/09/14 00:58:06;;;;;;;5.88;3.40;;;12.50;83.00;;;;;;4956232;28;20043;-78
2023/09/14 01:00:32;;;;;;;7.50;3.17;;;12.50;83.20;;;;;;4955487;29;20035;-78
2023/09/14 01:02:58;;;;;;;5.97;2.83;;;12.40;83.30;;;;;;4956189;28;20085;-80
2023/09/14 01:05:30;;;;;;;6.78;3.25;;;12.30;83.50;;;;;;4956411;28;20082;-79
2023/09/14 01:07:56;;;;;;;6.35;3.22;;;12.20;83.70;;;;;;4940233;29;20078;-79
2023/09/14 01:10:23;;;;;;;3.83;2.78;;;12.20;84.00;;;;;;4956140;29;20094;-79
2023/09/14 01:12:49;;;;;;;6.65;3.55;;;12.10;84.20;;;;;;4956097;28;20043;-79
2023/09/14 01:15:23;;;;;;;9.93;3.40;;;12.10;84.30;;;;;;4956015;28;20170;-79
2023/09/14 01:18:16;;;;;;;6.32;2.88;;;12.10;84.30;;;;;;4953786;28;20047;-78
2023/09/14 01:21:03;;;;;;;8.95;3.28;;;12.00;84.60;;;;;;4936615;29;20060;-77
2023/09/14 01:23:55;;;;;;;4.70;3.03;;;12.00;84.80;;;;;;4936629;29;20134;-77
2023/09/14 01:26:22;;;;;;;5.95;3.00;;;11.90;84.90;;;;;;4936887;29;20048;-79
2023/09/14 01:28:47;;;;;;;5.88;3.05;;;11.80;85.00;;;;;;4936793;29;20065;-80
2023/09/14 01:31:14;;;;;;;5.55;3.05;;;11.80;85.20;;;;;;4936652;29;20102;-77
2023/09/14 01:33:41;;;;;;;4.00;3.00;;;11.70;85.20;;;;;;4936509;29;20044;-77
2023/09/14 01:36:09;;;;;;;6.85;3.13;;;11.80;85.30;;;;;;4933403;29;20496;-79
2023/09/14 01:38:36;;;;;;;6.85;3.47;;;11.70;85.30;;;;;;4955595;28;20040;-77
2023/09/14 01:41:03;;;;;;;6.72;3.53;;;11.70;85.40;;;;;;4955643;29;20094;-78
2023/09/14 01:43:30;;;;;;;6.70;3.33;;;11.70;85.60;;;;;;4955500;28;20077;-79
2023/09/14 01:45:56;;;;;;;5.40;3.47;;;11.70;85.60;;;;;;4955449;29;20126;-81
2023/09/14 01:48:22;;;;;;;6.75;3.53;;;11.70;85.70;;;;;;4955463;29;20130;-77
2023/09/14 01:50:49;;;;;;;4.63;3.20;;;11.70;85.80;;;;;;4954482;28;20054;-79
2023/09/14 01:53:15;;;;;;;8.43;3.33;;;11.60;85.70;;;;;;4955255;28;20069;-77
2023/09/14 01:55:40;;;;;;;6.78;3.70;;;11.60;85.80;;;;;;4955444;28;20083;-78
2023/09/14 01:58:06;;;;;;;5.78;3.33;;;11.70;86.10;;;;;;4923775;29;20086;-75
2023/09/14 02:00:32;;;;;;;5.53;3.20;;;11.70;86.20;;;;;;4955262;28;20039;-77
2023/09/14 02:02:58;;;;;;;7.30;3.25;;;11.60;86.20;;;;;;4939266;29;20065;-78
2023/09/14 02:05:24;;;;;;;7.18;2.95;;;11.60;86.40;;;;;;4939078;29;20066;-79
2023/09/14 02:07:49;;;;;;;7.68;3.78;;;11.60;86.40;;;;;;4955211;29;20043;-78
2023/09/14 02:10:19;;;;;;;8.15;3.13;;;11.50;86.40;;;;;;4954060;28;20399;-79
2023/09/14 02:12:45;;;;;;;8.80;3.50;;;11.50;86.40;;;;;;4954975;28;20066;-77
2023/09/14 02:15:10;;;;;;;6.43;3.60;;;11.40;86.50;;;;;;4954907;28;20035;-77
2023/09/14 02:17:36;;;;;;;6.95;3.03;;;11.40;86.40;;;;;;4938888;29;20039;-80
2023/09/14 02:20:05;;;;;;;6.47;3.08;;;11.50;86.50;;;;;;4954949;28;20051;-79
2023/09/14 02:22:30;;;;;;;4.32;2.67;;;11.40;86.50;;;;;;4942107;28;20043;-77
2023/09/14 02:24:56;;;;;;;8.88;3.25;;;11.40;86.50;;;;;;4926392;28;20395;-78
2023/09/14 02:27:22;;;;;;;6.63;3.08;;;11.40;86.40;;;;;;4941862;28;20061;-76
2023/09/14 02:29:51;;;;;;;4.03;2.90;;;11.40;86.50;;;;;;4957960;28;20097;-76
2023/09/14 02:32:17;;;;;;;7.45;3.03;;;11.50;86.80;;;;;;4957848;28;20403;-78
2023/09/14 02:34:43;;;;;;;4.40;2.97;;;11.40;86.70;;;;;;4958031;28;20038;-76
2023/09/14 02:37:08;;;;;;;7.30;3.10;;;11.30;86.70;;;;;;4956552;28;20435;-77
2023/09/14 02:39:34;;;;;;;5.22;2.63;;;11.20;86.80;;;;;;4957717;28;20038;-79
2023/09/14 02:41:59;;;;;;;14.40;4.07;;;11.20;86.90;;;;;;4941932;28;20089;-77
2023/09/14 02:44:25;;;;;;;9.20;2.95;;;11.10;86.90;;;;;;4957610;28;20550;-79
2023/09/14 02:46:51;;;;;;;7.32;3.33;;;11.10;86.90;;;;;;4957215;28;20078;-79
2023/09/14 02:49:16;;;;;;;7.22;3.03;;;11.10;86.90;;;;;;4956910;28;20049;-79
2023/09/14 02:51:42;;;;;;;7.70;3.28;;;11.10;86.90;;;;;;4957639;28;20046;-79
2023/09/14 02:54:08;;;;;;;7.45;2.80;;;11.10;86.90;;;;;;4908858;28;20129;-78
2023/09/14 02:56:33;;;;;;;3.65;2.75;;;11.10;86.90;;;;;;4957430;28;20045;-80
2023/09/14 02:58:59;;;;;;;5.93;2.90;;;11.10;86.80;;;;;;4941438;28;20093;-79
2023/09/14 03:01:28;;;;;;;5.63;2.75;;;11.10;86.80;;;;;;4957711;28;20081;-78
2023/09/14 03:03:53;;;;;;;9.45;3.50;;;11.10;86.80;;;;;;4957558;28;20047;-79
2023/09/14 03:06:19;;;;;;;4.43;2.45;;;11.10;86.90;;;;;;4941503;28;20042;-77
2023/09/14 03:08:45;;;;;;;5.57;2.90;;;11.10;87.00;;;;;;4957095;28;20043;-76
2023/09/14 03:11:11;;;;;;;6.43;2.75;;;11.00;87.00;;;;;;4938535;29;20136;-78
2023/09/14 03:13:37;;;;;;;6.90;2.53;;;11.10;87.20;;;;;;4937989;29;20044;-79
2023/09/14 03:16:03;;;;;;;6.45;2.58;;;11.10;87.20;;;;;;4922341;29;20090;-79
2023/09/14 03:18:28;;;;;;;4.53;2.83;;;11.10;87.30;;;;;;4922402;29;20476;-76
2023/09/14 03:20:56;;;;;;;2.85;2.20;;;11.10;87.20;;;;;;4934528;29;20052;-79
2023/09/14 03:23:22;;;;;;;2.60;1.70;;;11.10;87.50;;;;;;4934936;29;20061;-79
2023/09/14 03:25:48;;;;;;;3.78;1.80;;;11.00;87.70;;;;;;4935092;29;20090;-78
2023/09/14 03:28:15;;;;;;;2.67;1.25;;;11.10;87.80;;;;;;4954866;29;20134;-76
2023/09/14 03:30:41;;;;;;;2.53;1.20;;;11.10;87.90;;;;;;4937948;29;20531;-79
2023/09/14 03:33:08;;;;;;;2.65;1.50;;;11.10;88.00;;;;;;4953699;28;20131;-78
2023/09/14 03:35:33;;;;;;;1.55;1.20;;;11.10;87.90;;;;;;4953753;28;20066;-80
2023/09/14 03:38:00;;;;;;;2.90;1.60;;;11.10;88.30;;;;;;4954871;29;20051;-75
2023/09/14 03:40:26;;;;;;;2.70;1.52;;;11.10;88.40;;;;;;4968297;28;20123;-76
2023/09/14 03:42:52;;;;;;;1.95;1.67;;;11.00;88.40;;;;;;4934918;29;20428;-75
2023/09/14 03:45:17;;;;;;;4.93;2.38;;;11.10;88.70;;;;;;4946177;29;20564;-78
2023/09/14 03:47:43;;;;;;;7.28;2.60;;;11.20;89.00;;;;;;4950541;29;20077;-76
2023/09/14 03:50:10;;;;;;;4.65;3.40;;;11.20;89.30;;;;;;4966403;29;20049;-76
2023/09/14 03:52:36;;;;;;;5.72;2.95;;;11.20;89.70;;;;;;4950842;29;20138;-77
2023/09/14 03:55:02;;;;;;;5.38;2.35;;;11.20;89.70;;;;;;4967510;28;20050;-76
2023/09/14 03:57:29;;;;;;;3.90;2.88;;;11.30;89.80;;;;;;4967798;28;20047;-77
2023/09/14 03:59:56;;;;;;;4.60;2.60;;;11.20;89.90;;;;;;4971366;28;20079;-76
2023/09/14 04:02:23;;;;;;;2.75;1.73;;;11.20;89.90;;;;;;4969318;28;20047;-75
2023/09/14 04:04:49;;;;;;;4.30;2.45;;;11.20;89.90;;;;;;4957476;28;20057;-78
2023/09/14 04:07:16;;;;;;;3.60;2.70;;;11.30;89.80;;;;;;4957343;29;20138;-78
2023/09/14 04:09:43;;;;;;;7.88;2.30;;;11.20;89.60;;;;;;4957267;28;20488;-78
2023/09/14 04:12:09;;;;;;;7.07;2.40;;;11.20;89.50;;;;;;4974064;28;20082;-78
2023/09/14 04:14:35;;;;;;;3.13;1.92;;;11.10;89.40;;;;;;4972744;28;20054;-78
2023/09/14 04:17:01;;;;;;;3.08;2.05;;;11.10;89.50;;;;;;4955852;28;20447;-79
2023/09/14 04:19:28;;;;;;;3.85;1.88;;;11.10;89.50;;;;;;4925273;29;20039;-80
2023/09/14 04:21:54;;;;;;;5.22;2.10;;;11.10;89.50;;;;;;4957128;28;20118;-77
2023/09/14 04:24:20;;;;;;;4.10;2.28;;;11.10;89.50;;;;;;4941167;29;20463;-77
2023/09/14 04:26:46;;;;;;;4.40;2.08;;;11.00;89.60;;;;;;4957208;29;20042;-78
2023/09/14 04:29:13;;;;;;;4.78;2.25;;;11.00;89.50;;;;;;4957181;29;20104;-77
2023/09/14 04:31:40;;;;;;;3.33;2.38;;;10.90;89.40;;;;;;4956836;28;20047;-76
2023/09/14 04:34:07;;;;;;;5.10;1.88;;;10.90;89.30;;;;;;4955686;28;20496;-77
2023/09/14 04:36:33;;;;;;;4.10;2.10;;;10.80;89.30;;;;;;4956606;28;20039;-77
2023/09/14 04:39:03;;;;;;;3.38;1.70;;;10.80;89.20;;;;;;4940632;29;20066;-77
2023/09/14 04:41:32;;;;;;;3.60;2.22;;;10.80;89.20;;;;;;4954736;28;20131;-75
2023/09/14 04:43:58;;;;;;;6.60;2.53;;;10.80;89.40;;;;;;4956108;28;20593;-78
2023/09/14 04:46:23;;;;;;;4.80;2.30;;;10.80;89.50;;;;;;4956213;29;20039;-77
2023/09/14 04:48:50;;;;;;;5.15;2.50;;;10.90;89.60;;;;;;4939853;29;20562;-78
2023/09/14 04:51:15;;;;;;;6.97;2.55;;;10.90;89.50;;;;;;4956149;29;20039;-77
2023/09/14 04:53:41;;;;;;;4.03;2.00;;;10.90;89.50;;;;;;4947397;29;20403;-78
2023/09/14 04:56:07;;;;;;;3.03;1.90;;;10.80;89.20;;;;;;4955531;28;20070;-75
2023/09/14 04:58:33;;;;;;;2.17;1.48;;;10.70;89.20;;;;;;4954914;28;20108;-78
2023/09/14 05:00:59;;;;;;;2.83;1.60;;;10.60;89.30;;;;;;4939544;29;20436;-77
2023/09/14 05:03:25;;;;;;;2.53;1.80;;;10.50;89.30;;;;;;4939231;29;20039;-77
2023/09/14 05:05:53;;;;;;;3.60;1.60;;;10.60;89.40;;;;;;4978142;28;20065;-77
2023/09/14 05:08:18;;;;;;;2.70;1.90;;;10.60;89.40;;;;;;4939216;29;20043;-77
2023/09/14 05:10:44;;;;;;;3.85;2.20;;;10.50;89.60;;;;;;4986870;28;20059;-77
2023/09/14 05:13:10;;;;;;;4.82;2.03;;;10.50;89.70;;;;;;4988218;28;20098;-77
2023/09/14 05:15:36;;;;;;;3.47;1.95;;;10.60;89.70;;;;;;4972267;28;20050;-78
2023/09/14 05:18:02;;;;;;;2.47;1.58;;;10.60;89.80;;;;;;4940041;29;20059;-78
2023/09/14 05:20:28;;;;;;;2.75;1.42;;;10.60;89.70;;;;;;4955884;29;20459;-79
2023/09/14 05:22:54;;;;;;;4.50;1.92;;;10.60;89.70;;;;;;4940272;29;20137;-77
2023/09/14 05:25:20;;;;;;;4.68;0.90;;;10.60;89.70;;;;;;4969452;28;20403;-76
2023/09/14 05:27:46;;;;;;;1.38;0.80;;;10.60;89.70;;;;;;4940155;29;20395;-77
2023/09/14 05:30:12;;;;;;;0.70;0.68;;;10.50;89.50;;;;;;4956066;28;20133;-76
2023/09/14 05:32:41;;;;;;;1.40;0.68;;;10.50;89.50;;;;;;4955768;29;20042;-78
2023/09/14 05:35:07;;;;;;;1.25;0.90;;;10.50;89.50;;;;;;4939818;29;20045;-78
2023/09/14 05:37:33;;;;;;;2.38;0.80;;;10.50;89.70;;;;;;4955646;28;20075;-78
2023/09/14 05:39:59;;;;;;;0.55;0.55;;;10.50;89.80;;;;;;4924094;29;20043;-78
2023/09/14 05:42:25;;;;;;;2.00;0.68;;;10.50;90.00;;;;;;4955259;28;20053;-78
2023/09/14 05:44:51;;;;;;;1.55;0.80;;;10.50;90.20;;;;;;4920089;29;20048;-76
2023/09/14 05:47:17;;;;;;;2.17;1.10;;;10.40;90.30;;;;;;4920431;29;20083;-77
2023/09/14 05:49:43;;;;;;;5.57;1.55;;;10.40;90.40;;;;;;4937632;29;20043;-80
2023/09/14 05:52:09;;;;;;;6.13;2.55;;;10.50;90.40;;;;;;4946722;28;20053;-78
2023/09/14 05:54:36;;;;;;;6.50;2.38;;;10.50;90.80;;;;;;4946141;29;20113;-77
2023/09/14 05:57:03;;;;;;;2.53;1.63;;;10.50;90.90;;;;;;4952925;28;20066;-77
2023/09/14 05:59:28;;;;;;;2.67;1.70;;;10.60;90.80;;;;;;4962913;28;20114;-80
2023/09/14 06:01:55;;;;;;;4.50;2.13;;;10.60;90.70;;;;;;4936368;29;20212;-79
2023/09/14 06:04:20;;;;;;;4.97;1.85;;;10.60;90.70;;;;;;4954777;29;20035;-77
2023/09/14 06:06:46;;;;;;;3.28;2.03;;;10.60;90.50;;;;;;4946911;29;20114;-76
2023/09/14 06:09:12;;;;;;;2.95;2.05;;;10.80;90.80;;;;;;4927142;28;20494;-77
2023/09/14 06:11:38;;;;;;;3.17;2.10;;;10.80;90.80;;;;;;4953478;28;20635;-77
2023/09/14 06:14:04;;;;;;;7.55;2.30;;;10.80;90.70;;;;;;4938810;28;20050;-78
2023/09/14 06:16:29;;;;;;;8.93;2.72;;;10.90;90.70;;;;;;4955956;28;20407;-77
2023/09/14 06:18:55;;;;;;;5.30;2.17;;;10.90;90.70;;;;;;4953985;28;20066;-77
2023/09/14 06:21:21;;;;;;;7.78;2.13;;;11.00;90.40;;;;;;4938220;28;20138;-77
2023/09/14 06:23:46;;;;;;;3.63;2.40;;;11.00;90.30;;;;;;4957810;28;20081;-78
2023/09/14 06:26:15;;;;;;;6.07;2.45;;;11.10;90.40;;;;;;4927433;28;20137;-76
2023/09/14 06:28:41;;;;;;;6.20;2.42;;;11.20;90.40;;;;;;4953844;28;20137;-77
2023/09/14 06:31:07;;;;;;;12.35;3.10;;;11.30;90.10;;;;;;4939286;28;20079;-77
2023/09/14 06:33:32;;;;;;;5.38;2.30;;;11.30;90.10;;;;;;4939616;28;20106;-78
2023/09/14 06:35:58;;;;;;;5.03;2.17;;;11.40;89.90;;;;;;4957935;28;20042;-77
2023/09/14 06:38:24;;;;;;;3.72;2.53;;;11.50;89.60;;;;;;4922809;28;20039;-77
2023/09/14 06:40:50;;;;;;;4.43;3.17;;;11.60;89.40;;;;;;4952840;28;20478;-76
2023/09/14 06:43:16;;;;;;;6.18;3.20;;;11.70;89.40;;;;;;4937803;28;20042;-76
2023/09/14 06:45:41;;;;;;;5.32;3.45;;;11.80;89.10;;;;;;4938480;28;20415;-77
2023/09/14 06:48:08;;;;;;;7.00;3.80;;;11.90;88.90;;;;;;4952909;28;20058;-77
2023/09/14 06:50:33;;;;;;;6.80;3.50;;;12.00;88.70;;;;;;4940784;28;20051;-76
2023/09/14 06:52:59;;;;;;;4.63;3.28;;;12.10;88.50;;;;;;4939804;28;20061;-76
2023/09/14 06:55:25;;;;;;;7.47;3.78;;;12.20;88.40;;;;;;4956942;28;20055;-76
2023/09/14 06:57:50;;;;;;;5.78;3.33;;;12.30;88.30;;;;;;4952364;28;20636;-77
2023/09/14 07:00:21;;;;;;;7.95;3.47;;;12.40;88.30;;;;;;4942204;28;20411;-76
2023/09/14 07:02:50;;;;;;;6.32;3.75;;;12.50;88.20;;;;;;4939719;28;20058;-78
2023/09/14 07:05:16;;;;;;;6.25;3.72;;;12.50;87.90;;;;;;4955222;28;20051;-77
2023/09/14 07:07:42;;;;;;;6.20;3.65;;;12.60;87.60;;;;;;4943038;28;20050;-77
2023/09/14 07:10:08;;;;;;;8.38;4.88;;;12.70;87.50;;;;;;4952338;28;20057;-76
2023/09/14 07:12:35;;;;;;;6.50;3.70;;;12.80;87.30;;;;;;4933072;28;20047;-75
2023/09/14 07:15:02;;;;;;;8.40;4.05;;;13.00;86.90;;;;;;4951786;28;20043;-76
2023/09/14 07:17:28;;;;;;;6.55;3.15;;;13.00;86.70;;;;;;4936887;28;20038;-76
2023/09/14 07:19:54;;;;;;;5.25;3.65;;;13.20;86.40;;;;;;4953735;28;20046;-76
2023/09/14 07:22:20;;;;;;;8.43;3.10;;;13.30;86.10;;;;;;4928969;28;20053;-76
2023/09/14 07:24:46;;;;;;;8.68;3.42;;;13.40;86.00;;;;;;4962457;28;20502;-75
2023/09/14 07:27:14;;;;;;;4.95;2.90;;;13.50;85.70;;;;;;4961843;28;20050;-77
2023/09/14 07:29:39;;;;;;;10.75;3.10;;;13.50;85.60;;;;;;4944944;28;20050;-76
2023/09/14 07:32:05;;;;;;;5.85;3.13;;;13.50;85.40;;;;;;4957541;28;20054;-76
2023/09/14 07:34:31;;;;;;;8.25;3.35;;;13.60;85.40;;;;;;4943659;28;20050;-76
2023/09/14 07:36:57;;;;;;;8.00;3.13;;;13.70;85.40;;;;;;4927490;28;20039;-77
2023/09/14 07:39:22;;;;;;;9.45;3.35;;;13.80;85.60;;;;;;4940490;28;20043;-77
2023/09/14 07:41:55;;;;;;;9.02;3.05;;;14.00;85.50;;;;;;4960098;28;20572;-77
2023/09/14 07:44:21;;;;;;;8.02;3.85;;;14.10;85.20;;;;;;4944083;28;20050;-76
2023/09/14 07:46:46;;;;;;;8.30;4.20;;;14.20;85.10;;;;;;4961420;28;20053;-77
2023/09/14 07:49:12;;;;;;;5.93;4.05;;;14.50;84.60;;;;;;4957742;28;20058;-77
2023/09/14 07:51:38;;;;;;;10.02;4.90;;;14.60;84.40;;;;;;4956937;28;20047;-77
2023/09/14 07:54:03;;;;;;;9.45;4.57;;;14.70;84.20;;;;;;4955911;28;20038;-78
2023/09/14 07:56:29;;;;;;;8.85;4.60;;;14.80;84.00;;;;;;4944400;28;20054;-78
2023/09/14 07:58:56;;;;;;;8.23;3.55;;;14.90;83.90;;;;;;4957782;28;20526;-78
2023/09/14 08:01:22;;;;;;;9.80;3.60;;;14.90;82.90;;;;;;4939894;28;20046;-78
2023/09/14 08:03:49;;;;;;;11.25;3.38;;;14.80;80.90;;;;;;4944316;28;20042;-77
2023/09/14 08:06:18;;;;;;;6.72;2.60;;;14.90;81.90;;;;;;4961038;28;20376;-77
2023/09/14 08:08:44;;;;;;;8.27;2.80;;;14.80;81.30;;;;;;4962009;28;20188;-78
2023/09/14 08:11:11;;;;;;;7.50;3.38;;;14.80;81.00;;;;;;4955013;28;20059;-78
2023/09/14 08:13:37;;;;;;;8.43;2.90;;;14.80;81.30;;;;;;4958539;28;20050;-76
2023/09/14 08:16:05;;;;;;;9.02;3.63;;;14.80;81.20;;;;;;4954684;28;20077;-75
2023/09/14 08:18:30;;;;;;;6.03;2.75;;;14.90;81.60;;;;;;4956012;28;20043;-77
2023/09/14 08:20:56;;;;;;;5.63;2.65;;;15.00;81.90;;;;;;4953060;29;20138;-78
2023/09/14 08:23:22;;;;;;;9.27;3.67;;;15.00;81.90;;;;;;4952914;29;20129;-75
2023/09/14 08:25:48;;;;;;;8.80;3.05;;;15.10;81.90;;;;;;4951451;28;20109;-78
2023/09/14 08:28:15;;;;;;;6.90;2.53;;;15.20;81.90;;;;;;4936191;29;20401;-79
2023/09/14 08:30:42;;;;;;;7.85;2.50;;;15.30;81.30;;;;;;4953256;29;20395;-76
2023/09/14 08:33:08;;;;;;;10.07;2.95;;;15.40;81.60;;;;;;4937082;29;20054;-79
2023/09/14 08:35:35;;;;;;;7.22;2.10;;;15.50;81.30;;;;;;4953072;28;20047;-76
2023/09/14 08:38:05;;;;;;;9.55;2.33;;;15.60;80.90;;;;;;4921788;29;20044;-78
2023/09/14 08:40:31;;;;;;;12.55;3.10;;;15.60;78.90;;;;;;4937474;29;20424;-76
2023/09/14 08:42:59;;;;;;;7.88;2.10;;;15.60;78.30;;;;;;4953001;29;20492;-80
2023/09/14 08:45:30;;;;;;;7.93;2.00;;;15.80;78.70;;;;;;4954824;28;20039;-77
2023/09/14 08:47:58;;;;;;;6.75;2.45;;;15.90;78.80;;;;;;4940819;29;20458;-79
2023/09/14 08:50:26;;;;;;;6.95;2.63;;;16.00;78.40;;;;;;4956396;29;20039;-78
2023/09/14 08:52:52;;;;;;;7.05;2.58;;;16.00;78.20;;;;;;4956393;29;20555;-78
2023/09/14 08:55:20;;;;;;;7.35;2.25;;;16.10;77.60;;;;;;4940857;29;20043;-79
2023/09/14 08:57:46;;;;;;;12.90;2.17;;;16.30;77.40;;;;;;4956432;29;20126;-79
2023/09/14 09:00:17;;;;;;;9.18;2.20;;;16.40;77.30;;;;;;4956595;29;20045;-77
2023/09/14 09:02:48;;;;;;;8.60;2.92;;;16.50;76.10;;;;;;4957268;29;20053;-79
2023/09/14 09:05:15;;;;;;;9.63;2.88;;;16.70;76.60;;;;;;4958471;29;20068;-78
2023/09/14 09:07:42;;;;;;;6.15;2.80;;;16.90;75.50;;;;;;4957845;28;20046;-77
2023/09/14 09:10:20;;;;;;;8.05;2.47;;;16.90;75.60;;;;;;4957124;29;20130;-78
2023/09/14 09:12:49;;;;;;;6.25;2.13;;;17.10;75.30;;;;;;4956293;29;20059;-79
2023/09/14 09:15:15;;;;;;;9.57;2.40;;;17.30;74.40;;;;;;4940860;29;20436;-80
2023/09/14 09:17:41;;;;;;;10.63;2.53;;;17.50;74.10;;;;;;4939941;29;20078;-80
2023/09/14 09:20:24;;;;;;;9.77;3.08;;;17.70;72.70;;;;;;4958876;28;20054;-77
2023/09/14 09:22:59;;;;;;;7.43;2.60;;;17.70;73.30;;;;;;4943692;28;20046;-80
2023/09/14 09:25:25;;;;;;;10.40;2.47;;;17.60;72.40;;;;;;4943177;28;20042;-79
2023/09/14 09:28:02;;;;;;;8.07;3.25;;;17.60;71.70;;;;;;4959539;28;20399;-77
2023/09/14 09:30:35;;;;;;;7.85;2.53;;;17.60;71.80;;;;;;4943276;28;20561;-77
2023/09/14 09:33:01;;;;;;;8.85;2.95;;;17.60;70.80;;;;;;4959074;28;20048;-77
2023/09/14 09:35:31;;;;;;;11.10;4.03;;;17.70;72.10;;;;;;4943071;28;20034;-80
2023/09/14 09:38:08;;;;;;;10.60;3.53;;;17.80;71.40;;;;;;4943037;28;20513;-79
2023/09/14 09:40:34;;;;;;;9.32;3.72;;;18.00;71.50;;;;;;4943359;28;20104;-78
2023/09/14 09:43:04;;;;;;;9.40;4.55;;;18.00;70.40;;;;;;4958896;28;20042;-77
2023/09/14 09:45:30;;;;;;;9.10;4.13;;;18.20;68.90;;;;;;4958712;28;20090;-77
2023/09/14 09:47:56;;;;;;;13.00;4.50;;;18.30;68.30;;;;;;4959013;28;20128;-78
2023/09/14 09:50:22;;;;;;;14.23;4.65;;;18.40;68.50;;;;;;4959015;28;20496;-77
2023/09/14 09:52:49;;;;;;;8.60;2.80;;;18.60;69.10;;;;;;4959061;28;20051;-79
2023/09/14 09:55:24;;;;;;;11.45;2.75;;;18.70;68.70;;;;;;4959487;28;20039;-78
2023/09/14 09:57:51;;;;;;;7.05;2.78;;;18.70;68.00;;;;;;4958620;28;20043;-79
2023/09/14 10:00:19;;;;;;;5.40;2.45;;;18.70;66.30;;;;;;4943371;28;20129;-79
2023/09/14 10:02:47;;;;;;;6.53;2.30;;;18.80;67.70;;;;;;4959173;28;20053;-77
2023/09/14 10:05:13;;;;;;;9.05;2.72;;;18.80;67.40;;;;;;4959232;28;20570;-79
2023/09/14 10:07:40;;;;;;;8.93;2.35;;;18.90;68.10;;;;;;4959545;28;20047;-79
2023/09/14 10:10:10;;;;;;;11.68;3.05;;;18.90;67.90;;;;;;4943352;28;20042;-77
2023/09/14 10:12:40;;;;;;;7.57;2.30;;;18.90;67.40;;;;;;4927136;28;20051;-79
2023/09/14 10:15:08;;;;;;;8.05;2.40;;;19.00;68.10;;;;;;4958348;28;20042;-79
2023/09/14 10:17:34;;;;;;;11.60;2.78;;;19.00;68.10;;;;;;4943228;28;20059;-79
2023/09/14 10:20:05;;;;;;;8.65;2.38;;;18.90;67.60;;;;;;4943128;28;20126;-79
2023/09/14 10:22:32;;;;;;;6.45;2.38;;;18.90;67.40;;;;;;4943272;28;20467;-76
2023/09/14 10:24:58;;;;;;;11.68;3.03;;;18.80;67.40;;;;;;4942067;28;20043;-78
2023/09/14 10:27:29;;;;;;;7.10;2.28;;;18.90;66.70;;;;;;4957968;28;20098;-78
2023/09/14 10:29:58;;;;;;;9.95;2.40;;;19.00;66.30;;;;;;4957860;28;20045;-76
2023/09/14 10:32:25;;;;;;;6.85;2.55;;;19.20;66.40;;;;;;4937311;28;20070;-78
2023/09/14 10:34:52;;;;;;;9.20;2.53;;;19.40;65.80;;;;;;4957938;28;20043;-79
2023/09/14 10:37:23;;;;;;;6.30;2.42;;;19.60;66.10;;;;;;4957752;28;20046;-77
2023/09/14 10:39:50;;;;;;;11.10;4.53;;;19.70;65.20;;;;;;4941875;28;20108;-77
2023/09/14 10:42:16;;;;;;;14.15;6.22;;;19.60;63.40;;;;;;4958001;28;20073;-78
2023/09/14 10:44:42;;;;;;;8.75;3.03;;;19.50;64.30;;;;;;4957547;28;20479;-79
2023/09/14 10:47:09;;;;;;;5.75;2.63;;;19.70;63.70;;;;;;4956377;28;20050;-79
2023/09/14 10:49:36;;;;;;;9.00;2.60;;;19.90;64.10;;;;;;4941797;28;20054;-79
2023/09/14 10:52:03;;;;;;;7.00;2.55;;;20.10;64.00;;;;;;4957689;28;20143;-78
2023/09/14 10:54:31;;;;;;;6.82;2.17;;;20.20;63.70;;;;;;4941542;28;20046;-79
2023/09/14 10:57:00;;;;;;;7.10;2.63;;;20.20;62.40;;;;;;4957392;28;20050;-80
2023/09/14 10:59:51;;;;;;;6.07;2.15;;;20.20;62.10;;;;;;4957399;28;20042;-78
2023/09/14 11:02:45;;;;;;;9.77;2.63;;;20.20;62.30;;;;;;4956132;28;20495;-77
2023/09/14 11:05:15;;;;;;;10.73;3.35;;;20.40;61.80;;;;;;4941614;28;20051;-77
2023/09/14 11:07:47;;;;;;;9.60;3.00;;;20.50;61.00;;;;;;4957240;28;20043;-79
2023/09/14 11:10:18;;;;;;;6.25;2.90;;;20.50;60.30;;;;;;4956800;28;20043;-79
2023/09/14 11:12:44;;;;;;;10.40;3.03;;;20.70;60.20;;;;;;4957108;28;20050;-78
2023/09/14 11:15:22;;;;;;;9.18;3.20;;;20.70;59.30;;;;;;4957169;28;20043;-79
2023/09/14 11:17:53;;;;;;;4.63;2.00;;;20.90;60.70;;;;;;4957209;28;20035;-78
2023/09/14 11:20:25;;;;;;;9.60;3.05;;;21.20;60.10;;;;;;4951276;28;20055;-79
2023/09/14 11:22:52;;;;;;;7.75;2.30;;;21.10;59.00;;;;;;4957067;28;20050;-79
2023/09/14 11:25:37;;;;;;;9.10;2.60;;;21.10;59.60;;;;;;4925358;28;20129;-78
2023/09/14 11:28:05;;;;;;;7.43;2.92;;;20.70;58.60;;;;;;4941346;28;20038;-79
2023/09/14 11:30:31;;;;;;;7.45;2.83;;;20.30;59.80;;;;;;4941481;28;20078;-79
2023/09/14 11:33:01;;;;;;;8.20;3.00;;;20.50;61.00;;;;;;4956926;28;20101;-77
2023/09/14 11:35:39;;;;;;;8.65;2.55;;;20.50;60.60;;;;;;4956931;28;20500;-78
2023/09/14 11:38:23;;;;;;;9.00;2.63;;;20.90;60.10;;;;;;4956627;28;20035;-78
2023/09/14 11:40:49;;;;;;;5.65;2.58;;;21.10;57.50;;;;;;4956749;28;20043;-78
2023/09/14 11:43:27;;;;;;;8.73;2.58;;;21.50;58.70;;;;;;4939394;28;20047;-79
2023/09/14 11:45:59;;;;;;;5.72;2.53;;;21.50;58.20;;;;;;4955289;28;20526;-78
2023/09/14 11:48:29;;;;;;;8.38;2.78;;;21.70;58.00;;;;;;4939212;28;20041;-79
2023/09/14 11:51:00;;;;;;;5.55;2.40;;;21.50;55.50;;;;;;4955000;28;20051;-78
2023/09/14 11:53:31;;;;;;;5.88;2.40;;;21.40;57.40;;;;;;4954815;28;20125;-76
2023/09/14 11:55:57;;;;;;;7.18;2.63;;;21.20;57.30;;;;;;4954184;28;20078;-77
2023/09/14 11:58:26;;;;;;;5.18;2.45;;;21.40;57.20;;;;;;4952333;28;20069;-79
2023/09/14 12:00:56;;;;;;;7.50;2.95;;;21.40;56.80;;;;;;4937699;29;20035;-78
2023/09/14 12:03:22;;;;;;;9.93;2.72;;;21.40;56.80;;;;;;4937293;29;20053;-78
2023/09/14 12:05:48;;;;;;;9.15;2.40;;;21.50;58.70;;;;;;4937522;29;20047;-79
2023/09/14 12:08:16;;;;;;;8.25;2.80;;;21.20;58.00;;;;;;4920241;29;20503;-79
2023/09/14 12:10:44;;;;;;;9.88;2.60;;;21.40;57.50;;;;;;4936875;29;20051;-78
2023/09/14 12:13:12;;;;;;;8.70;3.05;;;21.40;58.10;;;;;;4936878;29;20044;-79
2023/09/14 12:15:38;;;;;;;9.73;3.15;;;21.10;58.50;;;;;;4945574;28;20066;-79
2023/09/14 12:18:04;;;;;;;7.75;2.80;;;21.40;58.10;;;;;;4956129;28;20089;-80
2023/09/14 12:20:32;;;;;;;5.45;2.58;;;21.70;57.00;;;;;;4957464;28;20059;-77
2023/09/14 12:22:58;;;;;;;9.68;2.92;;;21.90;55.70;;;;;;4960363;28;20051;-80
2023/09/14 12:25:24;;;;;;;5.05;2.90;;;22.20;55.70;;;;;;4944343;28;20078;-78
2023/09/14 12:27:50;;;;;;;5.78;2.40;;;22.40;54.40;;;;;;4912640;28;20084;-79
2023/09/14 12:30:16;;;;;;;6.30;2.60;;;22.30;55.40;;;;;;4959189;28;20074;-79
2023/09/14 12:32:42;;;;;;;7.40;3.30;;;22.30;55.40;;;;;;4960027;28;20051;-78
2023/09/14 12:35:12;;;;;;;5.05;2.55;;;22.50;56.10;;;;;;4944288;28;20372;-79
2023/09/14 12:37:39;;;;;;;8.85;3.10;;;22.90;56.30;;;;;;4960306;28;20348;-79
2023/09/14 12:40:10;;;;;;;12.18;4.10;;;22.90;54.60;;;;;;4959892;28;20526;-78
2023/09/14 12:42:36;;;;;;;5.00;2.58;;;23.00;54.50;;;;;;4959968;28;20050;-79
2023/09/14 12:45:07;;;;;;;8.05;2.92;;;22.90;51.90;;;;;;4959879;28;20501;-78
2023/09/14 12:47:33;;;;;;;9.68;2.75;;;23.20;53.10;;;;;;4958664;28;20046;-77